createdAt,value
2023-01-21T00:00:59.741Z,1018.5
2023-01-21T00:02:02.856Z,1018.5
2023-01-21T00:03:06.565Z,1018.6
2023-01-21T00:04:11.128Z,1018.7
2023-01-21T00:05:14.084Z,1018.7
2023-01-21T00:06:17.085Z,1018.7
2023-01-21T00:07:20.188Z,1018.7
2023-01-21T00:08:22.757Z,1018.6
2023-01-21T00:09:25.612Z,1018.7
2023-01-21T00:10:28.053Z,1018.7
2023-01-21T00:11:31.125Z,1018.7
2023-01-21T00:12:34.525Z,1018.7
2023-01-21T00:13:38.174Z,1018.7
2023-01-21T00:14:41.735Z,1018.8
2023-01-21T00:15:45.278Z,1018.8
2023-01-21T00:16:48.291Z,1018.8
2023-01-21T00:17:51.505Z,1018.8
2023-01-21T00:18:54.927Z,1018.8
2023-01-21T00:19:57.778Z,1018.8
2023-01-21T00:21:00.597Z,1018.8
2023-01-21T00:22:03.030Z,1018.9
2023-01-21T00:23:06.030Z,1018.9
2023-01-21T00:24:09.383Z,1018.9
2023-01-21T00:25:13.429Z,1018.9
2023-01-21T00:26:16.808Z,1018.9
2023-01-21T00:27:19.808Z,1018.9
2023-01-21T00:28:22.923Z,1018.9
2023-01-21T00:29:26.287Z,1018.9
2023-01-21T00:30:29.939Z,1018.9
2023-01-21T00:31:34.290Z,1019
2023-01-21T00:32:38.335Z,1019
2023-01-21T00:33:41.492Z,1018.9
2023-01-21T00:34:44.301Z,1019
2023-01-21T00:35:47.856Z,1019
2023-01-21T00:36:51.470Z,1019
2023-01-21T00:37:54.442Z,1019.1
2023-01-21T00:38:57.861Z,1019
2023-01-21T00:40:01.377Z,1019
2023-01-21T00:41:04.524Z,1019
2023-01-21T00:42:07.233Z,1019.1
2023-01-21T00:43:10.864Z,1019.1
2023-01-21T00:44:14.013Z,1019.1
2023-01-21T00:45:17.182Z,1019.1
2023-01-21T00:46:20.773Z,1019.2
2023-01-21T00:47:24.269Z,1019.1
2023-01-21T00:48:27.871Z,1019.1
2023-01-21T00:49:30.973Z,1019.1
2023-01-21T00:50:34.091Z,1019.2
2023-01-21T00:51:37.104Z,1019.2
2023-01-21T00:52:39.858Z,1019.2
2023-01-21T00:53:43.884Z,1019.2
2023-01-21T00:54:46.405Z,1019.2
2023-01-21T00:55:50.097Z,1019.3
2023-01-21T00:56:53.333Z,1019.2
2023-01-21T00:57:57.219Z,1019.3
2023-01-21T00:59:00.620Z,1019.3
2023-01-21T01:00:03.838Z,1019.3
2023-01-21T01:01:06.997Z,1019.3
2023-01-21T01:02:10.806Z,1019.4
2023-01-21T01:03:13.641Z,1019.4
2023-01-21T01:04:16.760Z,1019.4
2023-01-21T01:05:19.507Z,1019.4
2023-01-21T01:06:22.814Z,1019.5
2023-01-21T01:07:25.877Z,1019.5
2023-01-21T01:08:29.210Z,1019.5
2023-01-21T01:09:32.302Z,1019.5
2023-01-21T01:10:35.039Z,1019.5
2023-01-21T01:11:37.853Z,1019.5
2023-01-21T01:12:41.601Z,1019.6
2023-01-21T01:13:44.336Z,1019.5
2023-01-21T01:14:47.185Z,1019.6
2023-01-21T01:15:50.634Z,1019.6
2023-01-21T01:16:53.246Z,1019.6
2023-01-21T01:17:57.288Z,1019.7
2023-01-21T01:19:00.790Z,1019.6
2023-01-21T01:20:03.965Z,1019.7
2023-01-21T01:21:07.660Z,1019.7
2023-01-21T01:22:11.215Z,1019.7
2023-01-21T01:23:13.996Z,1019.7
2023-01-21T01:24:16.780Z,1019.7
2023-01-21T01:25:20.215Z,1019.7
2023-01-21T01:26:23.012Z,1019.8
2023-01-21T01:27:25.997Z,1019.8
2023-01-21T01:28:28.855Z,1019.8
2023-01-21T01:29:31.862Z,1019.8
2023-01-21T01:30:34.643Z,1019.8
2023-01-21T01:31:38.049Z,1019.8
2023-01-21T01:32:41.985Z,1019.8
2023-01-21T01:33:45.746Z,1019.8
2023-01-21T01:34:49.495Z,1019.7
2023-01-21T01:35:52.682Z,1019.8
2023-01-21T01:36:55.447Z,1019.8
2023-01-21T01:37:58.522Z,1019.8
2023-01-21T01:39:01.667Z,1019.8
2023-01-21T01:40:04.490Z,1019.7
2023-01-21T01:41:07.610Z,1019.7
2023-01-21T01:42:10.666Z,1019.8
2023-01-21T01:43:13.827Z,1019.8
2023-01-21T01:44:17.835Z,1019.8
2023-01-21T01:45:21.258Z,1019.8
2023-01-21T01:46:24.581Z,1019.8
2023-01-21T01:47:27.701Z,1019.8
2023-01-21T01:48:30.680Z,1019.9
2023-01-21T01:49:33.991Z,1019.9
2023-01-21T01:50:38.086Z,1019.9
2023-01-21T01:51:41.483Z,1019.9
2023-01-21T01:52:44.923Z,1020
2023-01-21T01:53:47.933Z,1019.9
2023-01-21T01:54:51.456Z,1020
2023-01-21T01:55:54.447Z,1020
2023-01-21T01:56:57.869Z,1019.9
2023-01-21T01:58:00.359Z,1019.9
2023-01-21T01:59:03.165Z,1020
2023-01-21T02:00:05.696Z,1020
2023-01-21T02:01:09.081Z,1020.1
2023-01-21T02:02:12.760Z,1020
2023-01-21T02:03:15.501Z,1020
2023-01-21T02:04:18.493Z,1020.1
2023-01-21T02:05:21.038Z,1020.1
2023-01-21T02:06:24.389Z,1020
2023-01-21T02:07:28.104Z,1020
2023-01-21T02:08:31.550Z,1020
2023-01-21T02:09:34.848Z,1020
2023-01-21T02:10:37.574Z,1020
2023-01-21T02:11:40.920Z,1020
2023-01-21T02:12:44.356Z,1020
2023-01-21T02:13:47.098Z,1020
2023-01-21T02:14:50.224Z,1020
2023-01-21T02:15:52.993Z,1020
2023-01-21T02:16:56.312Z,1020
2023-01-21T02:17:59.746Z,1020
2023-01-21T02:19:03.162Z,1020
2023-01-21T02:20:05.915Z,1020
2023-01-21T02:21:09.136Z,1020
2023-01-21T02:22:12.575Z,1020
2023-01-21T02:23:16.083Z,1020.1
2023-01-21T02:24:19.491Z,1020.1
2023-01-21T02:25:22.865Z,1020.1
2023-01-21T02:26:26.254Z,1020.2
2023-01-21T02:27:31.594Z,1020.1
2023-01-21T02:28:34.950Z,1020.2
2023-01-21T02:29:38.018Z,1020.1
2023-01-21T02:30:41.151Z,1020.1
2023-01-21T02:31:44.451Z,1020.1
2023-01-21T02:32:46.976Z,1020.2
2023-01-21T02:33:50.303Z,1020.2
2023-01-21T02:34:53.683Z,1020.2
2023-01-21T02:35:57.105Z,1020.2
2023-01-21T02:37:00.237Z,1020.3
2023-01-21T02:38:04.113Z,1020.3
2023-01-21T02:39:07.291Z,1020.3
2023-01-21T02:40:10.661Z,1020.3
2023-01-21T02:41:13.812Z,1020.3
2023-01-21T02:42:17.090Z,1020.3
2023-01-21T02:43:20.357Z,1020.3
2023-01-21T02:44:23.645Z,1020.3
2023-01-21T02:45:26.212Z,1020.3
2023-01-21T02:46:29.208Z,1020.3
2023-01-21T02:47:32.717Z,1020.3
2023-01-21T02:48:36.054Z,1020.4
2023-01-21T02:49:38.554Z,1020.4
2023-01-21T02:50:41.938Z,1020.4
2023-01-21T02:51:45.179Z,1020.4
2023-01-21T02:52:48.005Z,1020.4
2023-01-21T02:53:51.715Z,1020.4
2023-01-21T02:54:54.906Z,1020.4
2023-01-21T02:55:57.778Z,1020.4
2023-01-21T02:57:00.974Z,1020.5
2023-01-21T02:58:04.388Z,1020.5
2023-01-21T02:59:07.496Z,1020.5
2023-01-21T03:00:10.584Z,1020.5
2023-01-21T03:01:14.005Z,1020.6
2023-01-21T03:02:17.846Z,1020.5
2023-01-21T03:03:20.631Z,1020.7
2023-01-21T03:04:23.745Z,1020.7
2023-01-21T03:05:26.847Z,1020.6
2023-01-21T03:06:29.354Z,1020.5
2023-01-21T03:07:32.760Z,1020.6
2023-01-21T03:08:35.917Z,1020.6
2023-01-21T03:09:39.359Z,1020.7
2023-01-21T03:10:42.466Z,1020.7
2023-01-21T03:11:45.265Z,1020.8
2023-01-21T03:12:48.074Z,1020.8
2023-01-21T03:13:51.062Z,1020.8
2023-01-21T03:14:53.856Z,1020.7
2023-01-21T03:15:56.072Z,1020.7
2023-01-21T03:16:58.979Z,1020.8
2023-01-21T03:18:02.523Z,1020.8
2023-01-21T03:19:05.663Z,1020.9
2023-01-21T03:20:09.649Z,1020.8
2023-01-21T03:21:12.767Z,1020.8
2023-01-21T03:22:15.853Z,1020.8
2023-01-21T03:23:19.845Z,1020.8
2023-01-21T03:24:23.071Z,1020.8
2023-01-21T03:25:26.550Z,1020.8
2023-01-21T03:26:30.082Z,1020.8
2023-01-21T03:27:33.161Z,1020.8
2023-01-21T03:28:35.889Z,1020.8
2023-01-21T03:29:38.983Z,1020.8
2023-01-21T03:30:42.835Z,1020.8
2023-01-21T03:31:46.148Z,1020.8
2023-01-21T03:32:49.151Z,1020.8
2023-01-21T03:33:52.898Z,1020.8
2023-01-21T03:34:55.978Z,1020.8
2023-01-21T03:35:59.069Z,1020.8
2023-01-21T03:37:01.944Z,1020.8
2023-01-21T03:38:05.332Z,1020.8
2023-01-21T03:39:08.381Z,1020.8
2023-01-21T03:40:12.417Z,1020.8
2023-01-21T03:41:16.955Z,1020.8
2023-01-21T03:42:20.063Z,1020.8
2023-01-21T03:43:22.882Z,1020.8
2023-01-21T03:44:26.318Z,1020.8
2023-01-21T03:45:29.452Z,1020.9
2023-01-21T03:46:33.019Z,1020.8
2023-01-21T03:47:36.010Z,1020.8
2023-01-21T03:48:39.388Z,1020.8
2023-01-21T03:49:42.749Z,1020.8
2023-01-21T03:50:45.247Z,1020.8
2023-01-21T03:51:48.706Z,1020.8
2023-01-21T03:52:51.756Z,1020.8
2023-01-21T03:53:55.135Z,1020.8
2023-01-21T03:54:58.234Z,1020.9
2023-01-21T03:56:01.182Z,1020.8
2023-01-21T03:57:04.731Z,1020.9
2023-01-21T03:58:07.889Z,1020.9
2023-01-21T03:59:10.964Z,1020.9
2023-01-21T04:00:13.859Z,1020.9
2023-01-21T04:01:18.804Z,1020.9
2023-01-21T04:02:22.807Z,1020.9
2023-01-21T04:03:26.858Z,1020.9
2023-01-21T04:04:29.867Z,1021
2023-01-21T04:05:32.411Z,1021
2023-01-21T04:06:35.432Z,1020.9
2023-01-21T04:07:38.562Z,1020.9
2023-01-21T04:08:41.578Z,1020.9
2023-01-21T04:09:44.999Z,1021
2023-01-21T04:10:48.135Z,1021
2023-01-21T04:11:51.820Z,1021
2023-01-21T04:12:54.962Z,1021
2023-01-21T04:13:58.063Z,1021
2023-01-21T04:15:01.764Z,1021.1
2023-01-21T04:16:07.764Z,1021.1
2023-01-21T04:17:11.501Z,1021.1
2023-01-21T04:18:15.319Z,1021.1
2023-01-21T04:19:18.396Z,1021.2
2023-01-21T04:20:21.551Z,1021.2
2023-01-21T04:21:25.213Z,1021.2
2023-01-21T04:22:27.679Z,1021.2
2023-01-21T04:23:30.906Z,1021.2
2023-01-21T04:24:35.318Z,1021.2
2023-01-21T04:25:38.784Z,1021.2
2023-01-21T04:26:42.020Z,1021.2
2023-01-21T04:27:45.466Z,1021.2
2023-01-21T04:28:48.835Z,1021.2
2023-01-21T04:29:52.516Z,1021.3
2023-01-21T04:30:56.153Z,1021.3
2023-01-21T04:31:59.812Z,1021.3
2023-01-21T04:33:02.951Z,1021.3
2023-01-21T04:34:06.574Z,1021.3
2023-01-21T04:35:10.096Z,1021.3
2023-01-21T04:36:13.470Z,1021.3
2023-01-21T04:37:16.923Z,1021.3
2023-01-21T04:38:20.180Z,1021.3
2023-01-21T04:39:22.406Z,1021.3
2023-01-21T04:40:25.899Z,1021.3
2023-01-21T04:41:29.030Z,1021.3
2023-01-21T04:42:32.128Z,1021.3
2023-01-21T04:43:35.516Z,1021.4
2023-01-21T04:44:38.865Z,1021.4
2023-01-21T04:45:41.475Z,1021.4
2023-01-21T04:46:45.046Z,1021.4
2023-01-21T04:47:47.486Z,1021.4
2023-01-21T04:48:50.902Z,1021.4
2023-01-21T04:49:54.349Z,1021.4
2023-01-21T04:50:57.293Z,1021.4
2023-01-21T04:52:00.263Z,1021.4
2023-01-21T04:53:03.134Z,1021.4
2023-01-21T04:54:06.227Z,1021.4
2023-01-21T04:55:09.294Z,1021.4
2023-01-21T04:56:12.378Z,1021.4
2023-01-21T04:57:15.735Z,1021.4
2023-01-21T04:58:18.818Z,1021.5
2023-01-21T04:59:22.579Z,1021.4
2023-01-21T05:00:26.406Z,1021.4
2023-01-21T05:01:29.866Z,1021.4
2023-01-21T05:02:33.767Z,1021.5
2023-01-21T05:03:37.116Z,1021.5
2023-01-21T05:04:40.197Z,1021.5
2023-01-21T05:05:42.920Z,1021.4
2023-01-21T05:06:46.197Z,1021.5
2023-01-21T05:07:48.657Z,1021.5
2023-01-21T05:08:51.650Z,1021.5
2023-01-21T05:09:54.647Z,1021.6
2023-01-21T05:10:57.106Z,1021.6
2023-01-21T05:12:00.453Z,1021.6
2023-01-21T05:13:03.004Z,1021.6
2023-01-21T05:14:06.459Z,1021.6
2023-01-21T05:15:09.950Z,1021.6
2023-01-21T05:16:13.175Z,1021.6
2023-01-21T05:17:16.170Z,1021.6
2023-01-21T05:18:19.649Z,1021.7
2023-01-21T05:19:23.125Z,1021.6
2023-01-21T05:20:26.563Z,1021.6
2023-01-21T05:21:29.637Z,1021.7
2023-01-21T05:22:32.698Z,1021.7
2023-01-21T05:23:36.119Z,1021.7
2023-01-21T05:24:38.615Z,1021.7
2023-01-21T05:25:42.052Z,1021.7
2023-01-21T05:26:45.156Z,1021.8
2023-01-21T05:27:48.221Z,1021.7
2023-01-21T05:28:51.030Z,1021.7
2023-01-21T05:29:54.539Z,1021.7
2023-01-21T05:30:58.143Z,1021.7
2023-01-21T05:32:02.477Z,1021.7
2023-01-21T05:33:05.718Z,1021.8
2023-01-21T05:34:08.171Z,1021.8
2023-01-21T05:35:10.955Z,1021.8
2023-01-21T05:36:14.031Z,1021.8
2023-01-21T05:37:16.774Z,1021.8
2023-01-21T05:38:19.509Z,1021.9
2023-01-21T05:39:22.611Z,1021.9
2023-01-21T05:40:25.993Z,1021.9
2023-01-21T05:41:29.343Z,1021.9
2023-01-21T05:42:32.280Z,1021.9
2023-01-21T05:43:34.919Z,1021.9
2023-01-21T05:44:38.346Z,1021.9
2023-01-21T05:45:41.059Z,1021.9
2023-01-21T05:46:44.240Z,1021.9
2023-01-21T05:47:47.381Z,1021.9
2023-01-21T05:48:51.149Z,1022
2023-01-21T05:49:54.020Z,1022
2023-01-21T05:50:58.955Z,1022
2023-01-21T05:52:02.517Z,1022.1
2023-01-21T05:53:04.724Z,1022.1
2023-01-21T05:54:06.918Z,1022.1
2023-01-21T05:55:10.487Z,1022.1
2023-01-21T05:56:13.581Z,1022.2
2023-01-21T05:57:16.300Z,1022.2
2023-01-21T05:58:19.100Z,1022.2
2023-01-21T05:59:22.865Z,1022.2
2023-01-21T06:00:25.691Z,1022.3
2023-01-21T06:01:28.810Z,1022.3
2023-01-21T06:02:32.425Z,1022.3
2023-01-21T06:03:35.990Z,1022.3
2023-01-21T06:04:39.163Z,1022.3
2023-01-21T06:05:42.622Z,1022.3
2023-01-21T06:06:45.927Z,1022.3
2023-01-21T06:07:48.186Z,1022.3
2023-01-21T06:08:50.942Z,1022.3
2023-01-21T06:09:53.115Z,1022.4
2023-01-21T06:10:55.868Z,1022.3
2023-01-21T06:11:58.755Z,1022.4
2023-01-21T06:13:01.841Z,1022.4
2023-01-21T06:14:05.173Z,1022.3
2023-01-21T06:15:08.523Z,1022.3
2023-01-21T06:16:11.786Z,1022.3
2023-01-21T06:17:15.432Z,1022.2
2023-01-21T06:18:18.562Z,1022.2
2023-01-21T06:19:22.061Z,1022.3
2023-01-21T06:20:25.697Z,1022.3
2023-01-21T06:21:29.176Z,1022.3
2023-01-21T06:22:32.534Z,1022.3
2023-01-21T06:23:35.907Z,1022.3
2023-01-21T06:24:38.634Z,1022.3
2023-01-21T06:25:41.422Z,1022.3
2023-01-21T06:26:44.866Z,1022.3
2023-01-21T06:27:48.287Z,1022.3
2023-01-21T06:28:51.380Z,1022.4
2023-01-21T06:29:54.439Z,1022.4
2023-01-21T06:30:58.095Z,1022.4
2023-01-21T06:32:01.676Z,1022.4
2023-01-21T06:33:05.945Z,1022.4
2023-01-21T06:34:09.713Z,1022.4
2023-01-21T06:35:13.215Z,1022.4
2023-01-21T06:36:16.878Z,1022.5
2023-01-21T06:37:19.785Z,1022.5
2023-01-21T06:38:23.250Z,1022.6
2023-01-21T06:39:26.628Z,1022.5
2023-01-21T06:40:29.898Z,1022.5
2023-01-21T06:41:33.290Z,1022.4
2023-01-21T06:42:36.085Z,1022.4
2023-01-21T06:43:39.089Z,1022.4
2023-01-21T06:44:41.878Z,1022.4
2023-01-21T06:45:44.943Z,1022.5
2023-01-21T06:47:01.478Z,1022.5
2023-01-21T06:48:05.484Z,1022.5
2023-01-21T06:49:08.778Z,1022.5
2023-01-21T06:50:12.571Z,1022.5
2023-01-21T06:51:16.995Z,1022.5
2023-01-21T06:52:19.764Z,1022.5
2023-01-21T06:53:22.790Z,1022.5
2023-01-21T06:54:26.728Z,1022.6
2023-01-21T06:55:33.663Z,1022.6
2023-01-21T06:56:36.213Z,1022.6
2023-01-21T06:57:39.374Z,1022.6
2023-01-21T06:58:42.779Z,1022.6
2023-01-21T06:59:46.311Z,1022.6
2023-01-21T07:00:49.056Z,1022.6
2023-01-21T07:01:52.390Z,1022.7
2023-01-21T07:02:55.817Z,1022.6
2023-01-21T07:03:59.556Z,1022.6
2023-01-21T07:05:03.284Z,1022.7
2023-01-21T07:06:07.664Z,1022.6
2023-01-21T07:07:10.827Z,1022.7
2023-01-21T07:08:14.234Z,1022.7
2023-01-21T07:09:18.263Z,1022.7
2023-01-21T07:10:21.331Z,1022.7
2023-01-21T07:11:24.787Z,1022.7
2023-01-21T07:12:27.959Z,1022.7
2023-01-21T07:13:31.046Z,1022.7
2023-01-21T07:14:33.549Z,1022.7
2023-01-21T07:15:36.556Z,1022.8
2023-01-21T07:16:39.280Z,1022.8
2023-01-21T07:17:41.470Z,1022.8
2023-01-21T07:18:44.841Z,1022.8
2023-01-21T07:19:48.197Z,1022.8
2023-01-21T07:20:51.551Z,1022.8
2023-01-21T07:21:54.928Z,1022.8
2023-01-21T07:22:58.291Z,1022.8
2023-01-21T07:24:01.738Z,1022.8
2023-01-21T07:25:04.544Z,1022.8
2023-01-21T07:26:08.198Z,1022.8
2023-01-21T07:27:11.675Z,1022.8
2023-01-21T07:28:14.901Z,1022.9
2023-01-21T07:29:17.574Z,1022.8
2023-01-21T07:30:20.963Z,1022.8
2023-01-21T07:31:24.225Z,1022.8
2023-01-21T07:32:28.279Z,1022.9
2023-01-21T07:33:31.569Z,1022.9
2023-01-21T07:34:34.077Z,1022.9
2023-01-21T07:35:37.569Z,1022.9
2023-01-21T07:36:40.671Z,1023
2023-01-21T07:37:44.459Z,1022.9
2023-01-21T07:38:48.046Z,1023
2023-01-21T07:39:51.847Z,1022.9
2023-01-21T07:40:57.032Z,1022.9
2023-01-21T07:42:00.026Z,1022.9
2023-01-21T07:43:03.118Z,1022.9
2023-01-21T07:44:06.878Z,1023
2023-01-21T07:45:10.316Z,1023
2023-01-21T07:46:13.361Z,1022.9
2023-01-21T07:47:16.548Z,1023
2023-01-21T07:48:19.914Z,1023
2023-01-21T07:49:23.127Z,1023
2023-01-21T07:50:26.344Z,1023
2023-01-21T07:51:30.129Z,1023.1
2023-01-21T07:52:33.234Z,1023.1
2023-01-21T07:53:36.713Z,1023.1
2023-01-21T07:54:40.510Z,1023.1
2023-01-21T07:55:43.344Z,1023.1
2023-01-21T07:56:46.358Z,1023.1
2023-01-21T07:57:49.132Z,1023.2
2023-01-21T07:58:52.199Z,1023.2
2023-01-21T07:59:55.087Z,1023.2
2023-01-21T08:00:57.624Z,1023.3
2023-01-21T08:02:01.167Z,1023.3
2023-01-21T08:03:05.126Z,1023.3
2023-01-21T08:04:08.570Z,1023.4
2023-01-21T08:05:11.946Z,1023.4
2023-01-21T08:06:14.738Z,1023.4
2023-01-21T08:07:17.489Z,1023.4
2023-01-21T08:08:20.828Z,1023.4
2023-01-21T08:09:23.992Z,1023.4
2023-01-21T08:10:27.268Z,1023.5
2023-01-21T08:11:30.085Z,1023.4
2023-01-21T08:12:33.471Z,1023.5
2023-01-21T08:13:36.582Z,1023.4
2023-01-21T08:14:39.953Z,1023.4
2023-01-21T08:15:43.079Z,1023.5
2023-01-21T08:16:46.426Z,1023.5
2023-01-21T08:17:49.736Z,1023.5
2023-01-21T08:18:53.174Z,1023.5
2023-01-21T08:19:55.883Z,1023.5
2023-01-21T08:20:59.357Z,1023.5
2023-01-21T08:22:02.455Z,1023.5
2023-01-21T08:23:05.777Z,1023.4
2023-01-21T08:24:09.125Z,1023.4
2023-01-21T08:25:12.516Z,1023.4
2023-01-21T08:26:16.005Z,1023.4
2023-01-21T08:27:19.394Z,1023.4
2023-01-21T08:28:22.147Z,1023.4
2023-01-21T08:29:24.875Z,1023.4
2023-01-21T08:30:28.140Z,1023.4
2023-01-21T08:31:30.761Z,1023.4
2023-01-21T08:32:34.121Z,1023.4
2023-01-21T08:33:37.575Z,1023.4
2023-01-21T08:34:40.381Z,1023.5
2023-01-21T08:35:43.452Z,1023.5
2023-01-21T08:36:46.577Z,1023.5
2023-01-21T08:37:49.319Z,1023.5
2023-01-21T08:38:52.222Z,1023.5
2023-01-21T08:39:55.281Z,1023.5
2023-01-21T08:40:58.685Z,1023.5
2023-01-21T08:42:01.832Z,1023.5
2023-01-21T08:43:05.556Z,1023.5
2023-01-21T08:44:08.402Z,1023.5
2023-01-21T08:45:12.081Z,1023.5
2023-01-21T08:46:18.291Z,1023.5
2023-01-21T08:47:21.378Z,1023.6
2023-01-21T08:48:24.966Z,1023.5
2023-01-21T08:49:28.022Z,1023.6
2023-01-21T08:50:32.460Z,1023.6
2023-01-21T08:51:35.839Z,1023.6
2023-01-21T08:52:37.811Z,1023.6
2023-01-21T08:53:41.530Z,1023.6
2023-01-21T08:54:44.837Z,1023.6
2023-01-21T08:55:48.536Z,1023.6
2023-01-21T08:56:51.934Z,1023.6
2023-01-21T08:57:54.749Z,1023.6
2023-01-21T08:58:57.886Z,1023.6
2023-01-21T09:00:01.681Z,1023.6
2023-01-21T09:01:05.699Z,1023.6
2023-01-21T09:02:09.315Z,1023.6
2023-01-21T09:03:13.025Z,1023.6
2023-01-21T09:04:15.448Z,1023.6
2023-01-21T09:05:19.104Z,1023.6
2023-01-21T09:06:22.549Z,1023.7
2023-01-21T09:07:25.884Z,1023.7
2023-01-21T09:08:28.963Z,1023.6
2023-01-21T09:09:32.253Z,1023.6
2023-01-21T09:10:35.899Z,1023.6
2023-01-21T09:11:39.371Z,1023.6
2023-01-21T09:12:42.489Z,1023.6
2023-01-21T09:13:46.359Z,1023.6
2023-01-21T09:14:49.501Z,1023.7
2023-01-21T09:15:52.612Z,1023.7
2023-01-21T09:16:55.974Z,1023.7
2023-01-21T09:17:59.602Z,1023.7
2023-01-21T09:19:02.709Z,1023.8
2023-01-21T09:20:05.785Z,1023.7
2023-01-21T09:21:09.149Z,1023.7
2023-01-21T09:22:11.663Z,1023.7
2023-01-21T09:23:14.733Z,1023.7
2023-01-21T09:24:17.783Z,1023.7
2023-01-21T09:25:23.623Z,1023.7
2023-01-21T09:26:26.396Z,1023.7
2023-01-21T09:27:30.159Z,1023.7
2023-01-21T09:28:33.976Z,1023.7
2023-01-21T09:29:37.332Z,1023.8
2023-01-21T09:30:40.997Z,1023.7
2023-01-21T09:31:44.039Z,1023.8
2023-01-21T09:32:47.886Z,1023.8
2023-01-21T09:33:51.953Z,1023.8
2023-01-21T09:34:54.969Z,1023.8
2023-01-21T09:35:58.364Z,1023.8
2023-01-21T09:37:01.176Z,1023.8
2023-01-21T09:38:04.684Z,1023.8
2023-01-21T09:39:07.977Z,1023.8
2023-01-21T09:40:11.067Z,1023.8
2023-01-21T09:41:14.355Z,1023.8
2023-01-21T09:42:17.662Z,1023.8
2023-01-21T09:43:20.711Z,1023.8
2023-01-21T09:44:23.835Z,1023.8
2023-01-21T09:45:27.240Z,1023.8
2023-01-21T09:46:30.983Z,1023.8
2023-01-21T09:47:34.483Z,1023.7
2023-01-21T09:48:37.299Z,1023.7
2023-01-21T09:49:40.337Z,1023.7
2023-01-21T09:50:43.099Z,1023.7
2023-01-21T09:51:45.721Z,1023.7
2023-01-21T09:52:49.484Z,1023.7
2023-01-21T09:53:52.507Z,1023.7
2023-01-21T09:54:55.612Z,1023.7
2023-01-21T09:55:58.404Z,1023.7
2023-01-21T09:57:01.134Z,1023.7
2023-01-21T09:58:04.614Z,1023.7
2023-01-21T09:59:07.621Z,1023.7
2023-01-21T10:00:10.738Z,1023.7
2023-01-21T10:01:14.172Z,1023.7
2023-01-21T10:02:17.477Z,1023.7
2023-01-21T10:03:20.872Z,1023.7
2023-01-21T10:04:24.519Z,1023.7
2023-01-21T10:05:28.434Z,1023.7
2023-01-21T10:06:35.006Z,1023.7
2023-01-21T10:07:38.752Z,1023.7
2023-01-21T10:08:41.480Z,1023.7
2023-01-21T10:09:44.997Z,1023.7
2023-01-21T10:10:47.983Z,1023.7
2023-01-21T10:11:50.689Z,1023.7
2023-01-21T10:12:53.688Z,1023.7
2023-01-21T10:13:56.819Z,1023.7
2023-01-21T10:15:00.473Z,1023.8
2023-01-21T10:16:03.720Z,1023.8
2023-01-21T10:17:07.467Z,1023.7
2023-01-21T10:18:10.935Z,1023.8
2023-01-21T10:19:13.722Z,1023.8
2023-01-21T10:20:16.555Z,1023.7
2023-01-21T10:21:19.637Z,1023.8
2023-01-21T10:22:23.759Z,1023.8
2023-01-21T10:23:26.686Z,1023.8
2023-01-21T10:24:30.338Z,1023.8
2023-01-21T10:25:33.065Z,1023.8
2023-01-21T10:26:36.537Z,1023.8
2023-01-21T10:27:39.621Z,1023.8
2023-01-21T10:28:43.047Z,1023.8
2023-01-21T10:29:46.458Z,1023.8
2023-01-21T10:30:49.427Z,1023.8
2023-01-21T10:31:53.998Z,1023.8
2023-01-21T10:32:57.515Z,1023.8
2023-01-21T10:34:01.011Z,1023.8
2023-01-21T10:35:04.426Z,1023.8
2023-01-21T10:36:07.935Z,1023.8
2023-01-21T10:37:11.324Z,1023.8
2023-01-21T10:38:15.039Z,1023.8
2023-01-21T10:39:18.415Z,1023.8
2023-01-21T10:40:21.676Z,1023.8
2023-01-21T10:41:24.549Z,1023.7
2023-01-21T10:42:27.616Z,1023.7
2023-01-21T10:43:30.333Z,1023.7
2023-01-21T10:44:33.549Z,1023.7
2023-01-21T10:45:36.844Z,1023.7
2023-01-21T10:46:39.971Z,1023.7
2023-01-21T10:47:43.335Z,1023.7
2023-01-21T10:48:47.441Z,1023.6
2023-01-21T10:49:51.530Z,1023.6
2023-01-21T10:50:55.298Z,1023.6
2023-01-21T10:51:58.872Z,1023.6
2023-01-21T10:53:01.884Z,1023.6
2023-01-21T10:54:05.234Z,1023.6
2023-01-21T10:55:08.213Z,1023.5
2023-01-21T10:56:10.923Z,1023.6
2023-01-21T10:57:14.797Z,1023.5
2023-01-21T10:58:17.530Z,1023.5
2023-01-21T10:59:20.630Z,1023.5
2023-01-21T11:00:24.077Z,1023.5
2023-01-21T11:01:27.275Z,1023.5
2023-01-21T11:02:31.582Z,1023.5
2023-01-21T11:03:35.746Z,1023.5
2023-01-21T11:04:39.285Z,1023.4
2023-01-21T11:05:42.874Z,1023.4
2023-01-21T11:06:46.556Z,1023.4
2023-01-21T11:07:50.251Z,1023.4
2023-01-21T11:08:54.157Z,1023.4
2023-01-21T11:09:57.855Z,1023.3
2023-01-21T11:11:01.027Z,1023.3
2023-01-21T11:12:04.505Z,1023.3
2023-01-21T11:13:07.595Z,1023.3
2023-01-21T11:14:10.820Z,1023.3
2023-01-21T11:15:15.590Z,1023.3
2023-01-21T11:16:20.035Z,1023.3
2023-01-21T11:17:23.815Z,1023.2
2023-01-21T11:18:27.617Z,1023.2
2023-01-21T11:19:30.466Z,1023.2
2023-01-21T11:20:34.248Z,1023.1
2023-01-21T11:21:37.645Z,1023.1
2023-01-21T11:22:41.083Z,1023.2
2023-01-21T11:23:44.506Z,1023.1
2023-01-21T11:24:47.892Z,1023.1
2023-01-21T11:25:50.769Z,1023.1
2023-01-21T11:26:54.498Z,1023.1
2023-01-21T11:27:57.970Z,1023.1
2023-01-21T11:29:01.366Z,1023.2
2023-01-21T11:30:44.430Z,1023.2
2023-01-21T11:32:00.306Z,1023.1
2023-01-21T11:33:04.431Z,1023.1
2023-01-21T11:34:07.756Z,1023.1
2023-01-21T11:35:11.810Z,1023.2
2023-01-21T11:36:15.588Z,1023.2
2023-01-21T11:37:19.368Z,1023.2
2023-01-21T11:38:23.049Z,1023.2
2023-01-21T11:39:26.847Z,1023.2
2023-01-21T11:40:29.379Z,1023.2
2023-01-21T11:41:32.524Z,1023.2
2023-01-21T11:42:34.396Z,1023.3
2023-01-21T11:43:37.386Z,1023.2
2023-01-21T11:44:40.715Z,1023.3
2023-01-21T11:45:44.097Z,1023.3
2023-01-21T11:46:46.917Z,1023.3
2023-01-21T11:47:49.996Z,1023.2
2023-01-21T11:48:53.746Z,1023.3
2023-01-21T11:49:56.849Z,1023.3
2023-01-21T11:51:00.597Z,1023.3
2023-01-21T11:52:04.234Z,1023.4
2023-01-21T11:53:07.736Z,1023.4
2023-01-21T11:54:11.134Z,1023.3
2023-01-21T11:55:14.832Z,1023.4
2023-01-21T11:56:17.276Z,1023.4
2023-01-21T11:57:20.441Z,1023.4
2023-01-21T11:58:23.547Z,1023.4
2023-01-21T11:59:27.181Z,1023.4
2023-01-21T12:00:30.915Z,1023.4
2023-01-21T12:01:33.976Z,1023.4
2023-01-21T12:02:36.689Z,1023.4
2023-01-21T12:03:40.181Z,1023.4
2023-01-21T12:04:43.816Z,1023.4
2023-01-21T12:05:47.178Z,1023.3
2023-01-21T12:06:50.690Z,1023.3
2023-01-21T12:07:53.823Z,1023.3
2023-01-21T12:08:57.549Z,1023.3
2023-01-21T12:10:00.643Z,1023.2
2023-01-21T12:11:03.754Z,1023.1
2023-01-21T12:12:06.884Z,1023.2
2023-01-21T12:13:10.248Z,1023.1
2023-01-21T12:14:12.978Z,1023.1
2023-01-21T12:15:15.773Z,1023.1
2023-01-21T12:16:18.802Z,1023.1
2023-01-21T12:17:22.177Z,1023
2023-01-21T12:18:25.614Z,1023
2023-01-21T12:19:28.775Z,1023
2023-01-21T12:20:32.463Z,1023
2023-01-21T12:21:35.312Z,1023
2023-01-21T12:22:38.691Z,1023
2023-01-21T12:23:41.788Z,1023
2023-01-21T12:24:45.620Z,1022.9
2023-01-21T12:25:48.636Z,1023
2023-01-21T12:26:52.736Z,1022.9
2023-01-21T12:27:55.952Z,1022.9
2023-01-21T12:28:58.758Z,1022.9
2023-01-21T12:30:02.236Z,1022.9
2023-01-21T12:31:05.839Z,1022.9
2023-01-21T12:32:09.494Z,1022.9
2023-01-21T12:33:12.339Z,1022.9
2023-01-21T12:34:15.709Z,1022.9
2023-01-21T12:35:19.626Z,1022.9
2023-01-21T12:36:22.672Z,1022.9
2023-01-21T12:37:26.326Z,1022.9
2023-01-21T12:38:29.442Z,1022.9
2023-01-21T12:39:32.286Z,1023
2023-01-21T12:40:35.759Z,1022.9
2023-01-21T12:41:39.543Z,1022.9
2023-01-21T12:42:43.005Z,1023
2023-01-21T12:43:46.488Z,1023
2023-01-21T12:44:50.162Z,1022.9
2023-01-21T12:45:53.802Z,1023
2023-01-21T12:46:57.613Z,1023
2023-01-21T12:48:01.469Z,1023
2023-01-21T12:49:04.993Z,1023
2023-01-21T12:50:08.070Z,1023
2023-01-21T12:51:12.262Z,1023
2023-01-21T12:52:15.545Z,1023
2023-01-21T12:53:19.295Z,1023
2023-01-21T12:54:22.835Z,1023
2023-01-21T12:55:25.989Z,1023
2023-01-21T12:56:29.986Z,1023
2023-01-21T12:57:33.471Z,1023
2023-01-21T12:58:36.877Z,1023
2023-01-21T12:59:40.964Z,1023
2023-01-21T13:00:44.504Z,1023
2023-01-21T13:01:48.237Z,1023
2023-01-21T13:02:51.396Z,1023
2023-01-21T13:03:55.134Z,1022.9
2023-01-21T13:04:58.148Z,1023
2023-01-21T13:06:01.658Z,1022.9
2023-01-21T13:07:04.698Z,1022.9
2023-01-21T13:08:08.238Z,1022.9
2023-01-21T13:09:11.976Z,1023
2023-01-21T13:10:16.336Z,1023
2023-01-21T13:11:22.141Z,1023
2023-01-21T13:12:25.352Z,1023
2023-01-21T13:13:28.789Z,1023
2023-01-21T13:14:31.909Z,1023
2023-01-21T13:15:35.065Z,1023.1
2023-01-21T13:16:38.486Z,1023.1